Long Island Mac Arthur Airport
KISP : now visible

Airfield :











YOU CAN JOIN US ON...

 
LOGIN :

Register | Disclaimer

   EN    FR    IT 

 









Legend :    VFR   Marginal VFR   IFR   Intensive IFR   Very Intensive IFR
Visi :
Ceiling :
>= 8 km
>= 3000ft
5 to 8 km
1000 to 3000 ft
1500m to 5 km
500 to 1000 ft
800 to 1500m
200 to 500 ft
< 800m
< 200 ft
Symbols :   Thunderstorms  Fog  Heavy snow  Heavy precipitations  Wind > 20 kt







- Airport Elevation : 99 ft
- IATA code : ISP


KISP - Long Island Mac Arthur

CURRENT METAR :
  • 260256Z 06007KT 10SM FEW060 SCT090 17/14 A3024 RMK AO2 SLP239 T01720139 50001

EXPIRED METARs :
  • 260156Z 07005KT 10SM FEW060 17/14 A3024 RMK AO2 SLP240 T01720144
  • 260056Z 05007KT 10SM FEW055 FEW200 18/14 A3024 RMK AO2 SLP240 T01780139

TAF KISP
Valid from the 26 at 03:00 until the 27 at 00:00 UTC


260311Z 2603/2624 06010KT P6SM FEW020 FEW060
FM260600 04011KT P6SM SCT015
TEMPO 2608/2612 BKN015
FM261500 05011G17KT P6SM SCT025
FM261800 08011KT P6SM SCT035
No reported NOTAMs for that airfield.



MET'MAP, your aeronautical weather chart ! - Copyright ORBIFLY December 2007 - Disclaimer

ORBIFLY MET'MAP TEAM :

Programming & Development : Alexandra Zaïnal
Concept & Development : Baudouin d'Aumeries
Co-Development & Prog : Marc-Olivier Méhu
Technical & hardware support : Manuel Goepfert

Contact : metmap@orbifly.com




SOURCES & CREDITS :

   NOAA       Earth
Advisory